Time;durP1;ratioP1;P1;durP2;ratioP2;P2;SDS_P1;SDS_P2;PMS_P1;PMS_P2;Temp;Humidity;BMP_temperature;BMP_pressure;BME280_temperature;BME280_humidity;BME280_pressure;Samples;Min_cycle;Max_cycle;Signal;HPM_P1;HPM_P2
2023/12/27 00:00:47;;;;;;;0.80;0.38;;;22.50;58.60;;;;;;5117156;27;20110;-41
2023/12/27 00:03:13;;;;;;;1.25;0.50;;;22.50;58.50;;;;;;5117961;28;20028;-39
2023/12/27 00:05:40;;;;;;;1.02;0.50;;;22.50;58.70;;;;;;5115612;27;20031;-43
2023/12/27 00:08:09;;;;;;;0.50;0.45;;;22.50;58.70;;;;;;5116489;28;20035;-40
2023/12/27 00:10:35;;;;;;;1.40;0.50;;;22.50;58.70;;;;;;5114384;27;20073;-40
2023/12/27 00:13:02;;;;;;;1.92;0.60;;;22.50;58.70;;;;;;5116705;27;20027;-39
2023/12/27 00:15:28;;;;;;;0.95;0.60;;;22.50;58.70;;;;;;5115446;27;20036;-40
2023/12/27 00:17:54;;;;;;;1.52;0.57;;;22.50;58.80;;;;;;5116541;27;20050;-40
2023/12/27 00:20:20;;;;;;;1.65;0.70;;;22.50;58.80;;;;;;5112689;28;20047;-39
2023/12/27 00:22:46;;;;;;;0.80;0.60;;;22.50;58.80;;;;;;5121079;28;20080;-39
2023/12/27 00:25:12;;;;;;;2.28;0.70;;;22.40;58.70;;;;;;5119429;28;20038;-40
2023/12/27 00:27:38;;;;;;;1.75;0.80;;;22.40;58.60;;;;;;5102172;27;20031;-40
2023/12/27 00:30:05;;;;;;;1.00;0.77;;;22.50;59.30;;;;;;5118474;28;20036;-40
2023/12/27 00:32:51;;;;;;;1.50;0.70;;;22.50;59.10;;;;;;5112588;27;20047;-40
2023/12/27 00:35:18;;;;;;;0.65;0.60;;;22.50;58.60;;;;;;5034875;28;20188;-40
2023/12/27 00:37:44;;;;;;;0.82;0.70;;;22.50;57.90;;;;;;5016364;28;20045;-40
2023/12/27 00:40:11;;;;;;;1.27;0.95;;;22.50;58.10;;;;;;5033963;28;20077;-39
2023/12/27 00:42:37;;;;;;;0.77;0.75;;;22.50;58.60;;;;;;5034429;28;20572;-41
2023/12/27 00:45:03;;;;;;;3.58;0.70;;;22.50;59.00;;;;;;5035685;28;20037;-42
2023/12/27 00:47:30;;;;;;;3.40;0.90;;;22.50;58.80;;;;;;5036491;28;20041;-40
2023/12/27 00:49:56;;;;;;;1.05;0.85;;;22.50;58.70;;;;;;5036463;28;20049;-42
2023/12/27 00:52:22;;;;;;;2.92;1.20;;;22.50;58.60;;;;;;5033325;28;20084;-41
2023/12/27 00:54:48;;;;;;;1.00;0.90;;;22.50;58.60;;;;;;5033228;28;20037;-40
2023/12/27 00:57:37;;;;;;;7.20;1.10;;;22.50;58.70;;;;;;5030091;28;20037;-40
2023/12/27 01:00:04;;;;;;;1.30;1.10;;;22.40;58.80;;;;;;5032605;28;20045;-39
2023/12/27 01:02:30;;;;;;;1.10;0.88;;;22.40;58.80;;;;;;5031018;28;20030;-40
2023/12/27 01:04:56;;;;;;;4.55;1.23;;;22.40;58.80;;;;;;5034421;28;20041;-39
2023/12/27 01:07:23;;;;;;;1.80;1.00;;;22.40;58.70;;;;;;5028341;28;20025;-39
2023/12/27 01:09:49;;;;;;;1.67;1.00;;;22.50;59.10;;;;;;5017175;28;20064;-40
2023/12/27 01:12:16;;;;;;;1.98;0.95;;;22.50;59.30;;;;;;5050524;28;20036;-40
2023/12/27 01:14:42;;;;;;;2.38;1.20;;;22.50;58.80;;;;;;5094166;28;20024;-40
2023/12/27 01:17:08;;;;;;;2.57;1.10;;;22.50;58.80;;;;;;5097562;28;20624;-40
2023/12/27 01:19:35;;;;;;;1.65;1.20;;;22.50;58.80;;;;;;5090091;28;20043;-40
2023/12/27 01:22:01;;;;;;;1.30;1.00;;;22.50;58.80;;;;;;5080276;28;20040;-40
2023/12/27 01:24:27;;;;;;;1.77;1.20;;;22.50;58.60;;;;;;5085521;28;20308;-40
2023/12/27 01:26:53;;;;;;;1.80;1.30;;;22.50;59.00;;;;;;5095157;28;20050;-41
2023/12/27 01:29:19;;;;;;;1.10;1.00;;;22.50;58.60;;;;;;5086377;28;20027;-40
2023/12/27 01:31:45;;;;;;;1.60;1.20;;;22.60;58.70;;;;;;5098354;28;20068;-41
2023/12/27 01:34:12;;;;;;;1.55;0.90;;;22.60;58.70;;;;;;5097105;28;20048;-41
2023/12/27 01:36:38;;;;;;;1.40;1.20;;;22.50;58.80;;;;;;5087777;28;20032;-40
2023/12/27 01:39:04;;;;;;;1.45;1.20;;;22.50;58.80;;;;;;5117574;28;20079;-39
2023/12/27 01:41:32;;;;;;;1.17;1.00;;;22.50;58.60;;;;;;5115803;28;20039;-40
2023/12/27 01:43:58;;;;;;;1.40;1.20;;;22.60;58.70;;;;;;5125015;28;20028;-39
2023/12/27 01:46:26;;;;;;;0.82;0.82;;;22.60;58.70;;;;;;5109598;28;20049;-40
2023/12/27 01:48:51;;;;;;;;;;;22.60;58.50;;;;;;5116315;28;20052;-41
2023/12/27 01:51:18;;;;;;;1.75;1.20;;;22.60;58.50;;;;;;5113871;28;19914;-41
2023/12/27 01:53:45;;;;;;;1.50;1.20;;;22.60;58.60;;;;;;5121693;28;20106;-40
2023/12/27 01:56:11;;;;;;;1.67;1.23;;;22.60;58.60;;;;;;5120899;28;20040;-40
2023/12/27 01:58:37;;;;;;;1.60;1.17;;;22.60;58.60;;;;;;5122298;28;20062;-40
2023/12/27 02:01:03;;;;;;;1.20;1.10;;;22.60;58.50;;;;;;5115762;28;20317;-40
2023/12/27 02:03:30;;;;;;;1.10;1.05;;;22.60;58.60;;;;;;5116002;28;20028;-40
2023/12/27 02:05:56;;;;;;;1.23;1.13;;;22.60;58.40;;;;;;5110722;28;20036;-40
2023/12/27 02:08:22;;;;;;;1.75;1.30;;;22.60;58.40;;;;;;5117136;28;20024;-40
2023/12/27 02:10:48;;;;;;;1.52;1.10;;;22.60;58.40;;;;;;5121207;28;20035;-40
2023/12/27 02:13:19;;;;;;;1.20;1.10;;;22.60;58.50;;;;;;5115068;27;20023;-40
2023/12/27 02:15:46;;;;;;;1.27;1.13;;;22.60;58.50;;;;;;5124727;27;20031;-40
2023/12/27 02:18:12;;;;;;;1.40;1.30;;;22.60;58.30;;;;;;5118541;28;20028;-40
2023/12/27 02:20:39;;;;;;;1.48;1.17;;;22.60;58.30;;;;;;5092558;28;20128;-40
2023/12/27 02:23:07;;;;;;;;;;;22.70;58.40;;;;;;5117148;27;20016;-39
2023/12/27 02:25:33;;;;;;;3.97;1.33;;;22.60;58.70;;;;;;5111922;27;19907;-40
2023/12/27 02:27:59;;;;;;;1.70;1.50;;;22.70;59.10;;;;;;5097440;27;20048;-40
2023/12/27 02:30:25;;;;;;;1.63;1.45;;;22.70;59.30;;;;;;5121104;28;20030;-40
2023/12/27 02:32:52;;;;;;;1.33;1.20;;;22.60;59.20;;;;;;5111053;28;20032;-40
2023/12/27 02:35:18;;;;;;;1.52;1.40;;;22.60;59.10;;;;;;5114025;27;20293;-40
2023/12/27 02:37:45;;;;;;;1.50;1.40;;;22.60;58.90;;;;;;5118813;28;20027;-39
2023/12/27 02:40:11;;;;;;;3.30;1.50;;;22.60;58.80;;;;;;5114557;27;20073;-40
2023/12/27 02:42:38;;;;;;;1.63;1.40;;;22.60;58.80;;;;;;5111288;28;20027;-40
2023/12/27 02:45:05;;;;;;;4.15;1.60;;;22.70;58.50;;;;;;5115985;28;20280;-40
2023/12/27 02:47:32;;;;;;;7.57;1.55;;;22.70;58.80;;;;;;5110686;28;20055;-40
2023/12/27 02:49:58;;;;;;;3.22;1.35;;;22.70;58.80;;;;;;5110218;28;20059;-40
2023/12/27 02:52:25;;;;;;;2.63;1.40;;;22.70;58.60;;;;;;5119444;28;20055;-40
2023/12/27 02:54:52;;;;;;;2.90;1.50;;;22.60;58.70;;;;;;5117129;28;20045;-40
2023/12/27 02:57:18;;;;;;;2.83;1.50;;;22.60;58.50;;;;;;5113098;28;20630;-40
2023/12/27 02:59:44;;;;;;;1.67;1.30;;;22.60;58.40;;;;;;5118231;28;20039;-48
2023/12/27 03:02:11;;;;;;;3.88;1.38;;;22.70;58.80;;;;;;5104462;28;20039;-47
2023/12/27 03:04:37;;;;;;;4.38;1.50;;;22.70;58.60;;;;;;5116840;27;20057;-49
2023/12/27 03:07:03;;;;;;;1.52;1.27;;;22.70;58.50;;;;;;5109827;28;20028;-48
2023/12/27 03:09:30;;;;;;;1.60;1.50;;;22.60;58.50;;;;;;5112066;27;20339;-49
2023/12/27 03:11:57;;;;;;;1.40;1.30;;;22.60;58.70;;;;;;5117163;27;20032;-47
2023/12/27 03:14:23;;;;;;;3.30;1.50;;;22.60;58.70;;;;;;5116476;27;20028;-48
2023/12/27 03:16:49;;;;;;;2.45;1.58;;;22.60;58.70;;;;;;5118974;27;20024;-47
2023/12/27 03:19:16;;;;;;;3.50;1.40;;;22.50;58.70;;;;;;5114715;28;20020;-47
2023/12/27 03:21:42;;;;;;;2.80;1.70;;;22.60;58.70;;;;;;5111428;28;20070;-47
2023/12/27 03:24:08;;;;;;;2.33;1.27;;;22.60;58.90;;;;;;5118910;28;20122;-49
2023/12/27 03:26:34;;;;;;;1.33;1.20;;;22.60;58.80;;;;;;5114760;28;20036;-49
2023/12/27 03:29:21;;;;;;;2.05;1.40;;;22.60;58.70;;;;;;5053822;28;20055;-47
2023/12/27 03:31:47;;;;;;;1.67;1.13;;;22.50;58.60;;;;;;5053986;28;20034;-48
2023/12/27 03:34:13;;;;;;;1.63;1.20;;;22.50;58.70;;;;;;5053580;28;20071;-47
2023/12/27 03:36:39;;;;;;;2.28;1.33;;;22.50;58.80;;;;;;5054490;28;20033;-46
2023/12/27 03:39:05;;;;;;;1.42;1.23;;;22.50;58.70;;;;;;5054513;28;20029;-44
2023/12/27 03:41:31;;;;;;;1.48;1.38;;;22.50;58.70;;;;;;5054815;28;20052;-46
2023/12/27 03:43:59;;;;;;;1.40;1.30;;;22.50;58.70;;;;;;5054495;28;20111;-46
2023/12/27 03:46:25;;;;;;;;;;;22.50;58.70;;;;;;5054036;28;20056;-47
2023/12/27 03:48:52;;;;;;;1.77;1.02;;;22.50;58.50;;;;;;5053107;28;19995;-47
2023/12/27 03:51:21;;;;;;;1.38;1.20;;;22.50;58.90;;;;;;5049840;28;20053;-47
2023/12/27 03:53:48;;;;;;;1.85;1.27;;;22.50;58.50;;;;;;5049660;28;20097;-48
2023/12/27 03:56:14;;;;;;;1.37;1.00;;;22.50;58.70;;;;;;5050858;28;20044;-48
2023/12/27 03:58:43;;;;;;;1.20;1.10;;;22.50;58.60;;;;;;5049611;28;20290;-46
2023/12/27 04:01:10;;;;;;;2.08;0.90;;;22.50;58.60;;;;;;5048441;28;20083;-48
2023/12/27 04:03:36;;;;;;;1.40;1.13;;;22.50;58.70;;;;;;5050762;28;20028;-46
2023/12/27 04:06:02;;;;;;;1.50;1.20;;;22.50;58.70;;;;;;5064395;28;20106;-46
2023/12/27 04:08:28;;;;;;;1.80;1.20;;;22.40;58.60;;;;;;5115031;27;20539;-47
2023/12/27 04:10:55;;;;;;;1.33;1.20;;;22.40;58.60;;;;;;5109965;28;20137;-46
2023/12/27 04:13:21;;;;;;;1.20;1.10;;;22.40;58.70;;;;;;5113483;28;20184;-46
2023/12/27 04:15:47;;;;;;;1.20;1.10;;;22.40;58.70;;;;;;5120145;27;20029;-48
2023/12/27 04:18:13;;;;;;;1.42;1.00;;;22.40;58.60;;;;;;5117183;28;20024;-46
2023/12/27 04:20:40;;;;;;;0.82;0.82;;;22.50;58.70;;;;;;5117436;28;20035;-46
2023/12/27 04:23:06;;;;;;;1.27;0.90;;;22.50;58.80;;;;;;5115336;28;20031;-45
2023/12/27 04:25:33;;;;;;;4.00;1.00;;;22.50;58.40;;;;;;5120557;27;20032;-47
2023/12/27 04:27:59;;;;;;;1.20;1.00;;;22.40;58.50;;;;;;5114302;28;20026;-47
2023/12/27 04:30:25;;;;;;;1.27;1.17;;;22.40;58.50;;;;;;5096192;28;20032;-46
2023/12/27 04:32:51;;;;;;;1.13;0.90;;;22.40;58.60;;;;;;5118324;28;20023;-47
2023/12/27 04:35:18;;;;;;;2.83;0.90;;;22.40;58.60;;;;;;5117971;28;20025;-46
2023/12/27 04:37:44;;;;;;;1.88;1.00;;;22.40;58.70;;;;;;5119665;28;20071;-45
2023/12/27 04:40:10;;;;;;;0.90;0.90;;;22.40;58.60;;;;;;5119299;28;20039;-46
2023/12/27 04:42:37;;;;;;;0.85;0.70;;;22.40;58.30;;;;;;5117933;28;20026;-50
2023/12/27 04:45:03;;;;;;;1.30;0.80;;;22.40;58.70;;;;;;5118119;28;20092;-46
2023/12/27 04:47:29;;;;;;;0.80;0.80;;;22.40;58.70;;;;;;5118020;28;20031;-46
2023/12/27 04:49:55;;;;;;;1.90;0.70;;;22.40;58.40;;;;;;5118631;28;20060;-46
2023/12/27 04:52:22;;;;;;;1.80;1.10;;;22.40;58.40;;;;;;5115039;28;20036;-45
2023/12/27 04:54:48;;;;;;;1.58;0.90;;;22.40;58.50;;;;;;5119943;28;20036;-46
2023/12/27 04:57:14;;;;;;;1.10;0.80;;;22.40;58.60;;;;;;5118703;28;20089;-46
2023/12/27 04:59:40;;;;;;;0.88;0.70;;;22.40;58.60;;;;;;5117523;28;20034;-46
2023/12/27 05:02:06;;;;;;;1.05;0.95;;;22.40;58.70;;;;;;5117324;28;20039;-49
2023/12/27 05:04:32;;;;;;;0.80;0.75;;;22.30;59.10;;;;;;5119280;27;20027;-45
2023/12/27 05:06:59;;;;;;;1.00;0.70;;;22.30;58.60;;;;;;5117288;28;20128;-45
2023/12/27 05:09:25;;;;;;;1.33;0.60;;;22.40;58.60;;;;;;5117438;28;20047;-46
2023/12/27 05:11:51;;;;;;;1.38;0.82;;;22.40;58.40;;;;;;5116243;28;20034;-48
2023/12/27 05:14:17;;;;;;;1.05;0.70;;;22.40;58.40;;;;;;5113092;27;20102;-45
2023/12/27 05:16:46;;;;;;;2.50;0.80;;;22.40;58.40;;;;;;5116816;28;20031;-46
2023/12/27 05:19:12;;;;;;;0.60;0.60;;;22.40;58.50;;;;;;5114982;28;20053;-47
2023/12/27 05:21:39;;;;;;;0.95;0.60;;;22.40;58.60;;;;;;5116960;28;20059;-47
2023/12/27 05:24:05;;;;;;;1.08;0.75;;;22.30;58.70;;;;;;5113260;28;20039;-46
2023/12/27 05:26:31;;;;;;;0.80;0.63;;;22.30;58.70;;;;;;5118019;28;20039;-46
2023/12/27 05:28:57;;;;;;;0.55;0.55;;;22.30;58.70;;;;;;5113688;28;20028;-45
2023/12/27 05:31:23;;;;;;;1.85;0.70;;;22.30;58.60;;;;;;5119534;28;20030;-47
2023/12/27 05:33:49;;;;;;;0.73;0.70;;;22.40;59.60;;;;;;5111443;28;20052;-49
2023/12/27 05:36:16;;;;;;;1.30;0.60;;;22.40;58.60;;;;;;5114977;28;20028;-46
2023/12/27 05:38:42;;;;;;;0.93;0.60;;;22.40;58.50;;;;;;5115890;28;20032;-47
2023/12/27 05:41:08;;;;;;;1.38;0.60;;;22.40;58.50;;;;;;5093323;28;20051;-47
2023/12/27 05:43:34;;;;;;;0.97;0.77;;;22.30;58.70;;;;;;5114316;28;20027;-47
2023/12/27 05:46:01;;;;;;;0.63;0.60;;;22.30;58.60;;;;;;5112035;28;20279;-47
2023/12/27 05:48:27;;;;;;;1.27;0.70;;;22.30;58.70;;;;;;5110451;28;20024;-47
2023/12/27 05:50:54;;;;;;;1.08;0.80;;;22.30;58.70;;;;;;5111293;28;20401;-48
2023/12/27 05:53:20;;;;;;;0.88;0.60;;;22.30;58.50;;;;;;5113354;28;20036;-46
2023/12/27 05:55:46;;;;;;;1.00;0.63;;;22.30;58.60;;;;;;5115411;28;20104;-46
2023/12/27 05:58:13;;;;;;;0.50;0.50;;;22.40;58.90;;;;;;5112011;28;20028;-46
2023/12/27 06:00:39;;;;;;;1.83;0.70;;;22.40;58.60;;;;;;5111131;28;20027;-46
2023/12/27 06:03:05;;;;;;;0.60;0.50;;;22.30;58.30;;;;;;5109593;28;20032;-44
2023/12/27 06:05:31;;;;;;;1.73;0.80;;;22.30;58.50;;;;;;5093042;28;20024;-44
2023/12/27 06:07:57;;;;;;;1.03;0.73;;;22.30;58.60;;;;;;5109394;28;20028;-43
2023/12/27 06:10:26;;;;;;;0.75;0.55;;;22.30;58.50;;;;;;5114189;28;20016;-44
2023/12/27 06:12:52;;;;;;;1.27;0.70;;;22.30;58.50;;;;;;5113503;28;20046;-45
2023/12/27 06:15:18;;;;;;;0.90;0.63;;;22.30;58.60;;;;;;5111986;28;20024;-47
2023/12/27 06:17:44;;;;;;;0.63;0.57;;;22.30;58.50;;;;;;5107740;28;20036;-49
2023/12/27 06:20:11;;;;;;;1.83;0.75;;;22.30;58.40;;;;;;5089664;28;20094;-49
2023/12/27 06:22:37;;;;;;;1.37;0.67;;;22.30;58.80;;;;;;5112589;28;20031;-49
2023/12/27 06:25:04;;;;;;;1.00;0.60;;;22.30;58.40;;;;;;5109613;28;20027;-47
2023/12/27 06:27:50;;;;;;;0.68;0.60;;;22.30;58.30;;;;;;5112382;28;20097;-47
2023/12/27 06:30:16;;;;;;;1.40;0.80;;;22.30;58.30;;;;;;5013385;28;20392;-47
2023/12/27 06:32:42;;;;;;;0.93;0.73;;;22.30;58.50;;;;;;5013807;28;20033;-46
2023/12/27 06:35:09;;;;;;;0.68;0.52;;;22.30;58.50;;;;;;5013695;28;21045;-46
2023/12/27 06:37:35;;;;;;;1.70;0.73;;;22.20;58.50;;;;;;5011699;28;20030;-47
2023/12/27 06:40:02;;;;;;;0.60;0.60;;;22.20;58.40;;;;;;5011897;28;20034;-47
2023/12/27 06:42:28;;;;;;;0.75;0.70;;;22.30;58.40;;;;;;5033850;28;20042;-50
2023/12/27 06:44:54;;;;;;;0.63;0.63;;;22.30;58.40;;;;;;5016082;28;20037;-46
2023/12/27 06:47:20;;;;;;;0.60;0.60;;;22.30;58.30;;;;;;5015007;28;20046;-47
2023/12/27 06:49:47;;;;;;;1.02;0.60;;;22.30;58.40;;;;;;5016284;28;20042;-46
2023/12/27 06:52:14;;;;;;;1.15;0.55;;;22.20;58.40;;;;;;5003422;28;20101;-46
2023/12/27 06:54:40;;;;;;;0.73;0.70;;;22.20;58.30;;;;;;5019259;28;20085;-47
2023/12/27 06:57:06;;;;;;;0.50;0.50;;;22.20;58.40;;;;;;5018769;28;20034;-47
2023/12/27 06:59:32;;;;;;;0.60;0.60;;;22.20;58.40;;;;;;5018983;28;20021;-47
2023/12/27 07:01:59;;;;;;;1.75;0.88;;;22.20;58.40;;;;;;5017946;28;20057;-47
2023/12/27 07:04:25;;;;;;;0.82;0.75;;;22.30;58.50;;;;;;5013670;28;20041;-51
2023/12/27 07:06:51;;;;;;;0.68;0.68;;;22.30;58.40;;;;;;5042148;28;20036;-47
2023/12/27 07:09:20;;;;;;;1.52;0.85;;;22.20;58.20;;;;;;5110009;28;20027;-47
2023/12/27 07:11:46;;;;;;;1.25;0.75;;;22.30;58.50;;;;;;5112372;28;20027;-46
2023/12/27 07:14:12;;;;;;;1.00;0.70;;;22.30;58.80;;;;;;5111696;28;20032;-39
2023/12/27 07:16:39;;;;;;;3.83;0.75;;;22.30;59.30;;;;;;5109054;27;20024;-42
2023/12/27 07:19:05;;;;;;;4.40;0.55;;;22.30;58.60;;;;;;5107089;28;20032;-42
2023/12/27 07:21:31;;;;;;;2.65;0.50;;;22.30;58.30;;;;;;5106076;27;20115;-42
2023/12/27 07:23:57;;;;;;;2.65;0.68;;;22.30;58.30;;;;;;5110487;27;20054;-46
2023/12/27 07:26:23;;;;;;;2.35;0.60;;;22.30;58.50;;;;;;5117889;28;20066;-47
2023/12/27 07:28:49;;;;;;;1.23;0.70;;;22.30;58.50;;;;;;5110830;27;20034;-45
2023/12/27 07:31:16;;;;;;;2.78;0.70;;;22.30;58.30;;;;;;5111814;28;20027;-38
2023/12/27 07:33:42;;;;;;;1.17;0.70;;;22.30;58.30;;;;;;5115843;28;20032;-46
2023/12/27 07:36:08;;;;;;;1.13;0.60;;;22.30;58.70;;;;;;5107065;27;20032;-46
2023/12/27 07:38:34;;;;;;;1.35;0.60;;;22.30;58.40;;;;;;5115650;28;20027;-47
2023/12/27 07:41:01;;;;;;;2.05;0.55;;;22.30;58.50;;;;;;5117893;27;20123;-48
2023/12/27 07:43:27;;;;;;;0.50;0.50;;;22.20;58.50;;;;;;5113826;28;20035;-45
2023/12/27 07:45:53;;;;;;;1.07;0.80;;;22.20;58.30;;;;;;5115314;28;20039;-45
2023/12/27 07:48:19;;;;;;;0.88;0.80;;;22.30;58.40;;;;;;5110133;28;20012;-45
2023/12/27 07:50:46;;;;;;;0.70;0.70;;;22.30;58.50;;;;;;5115523;28;20119;-44
2023/12/27 07:53:12;;;;;;;1.08;0.60;;;22.30;58.30;;;;;;5112485;28;20089;-45
2023/12/27 07:55:38;;;;;;;1.13;0.68;;;22.30;58.30;;;;;;5108530;27;20027;-47
2023/12/27 07:58:04;;;;;;;0.70;0.70;;;22.30;58.30;;;;;;5095288;28;20039;-46
2023/12/27 08:00:31;;;;;;;2.40;0.77;;;22.20;58.40;;;;;;5112431;28;20047;-46
2023/12/27 08:02:58;;;;;;;0.93;0.77;;;22.20;58.30;;;;;;5109050;28;20028;-44
2023/12/27 08:05:24;;;;;;;1.15;0.80;;;22.20;58.90;;;;;;5115293;27;20019;-45
2023/12/27 08:07:51;;;;;;;0.95;0.70;;;22.20;58.10;;;;;;5113620;28;20099;-45
2023/12/27 08:10:17;;;;;;;0.85;0.75;;;22.20;58.40;;;;;;5113636;27;20559;-45
2023/12/27 08:12:45;;;;;;;1.40;0.70;;;22.20;58.40;;;;;;5113865;27;20043;-45
2023/12/27 08:15:11;;;;;;;0.88;0.80;;;22.20;58.20;;;;;;5113585;27;20024;-46
2023/12/27 08:17:37;;;;;;;0.60;0.60;;;22.20;58.20;;;;;;5118586;28;20042;-46
2023/12/27 08:20:04;;;;;;;0.98;0.85;;;22.20;58.80;;;;;;5100608;27;20031;-46
2023/12/27 08:22:31;;;;;;;1.02;0.70;;;22.20;58.30;;;;;;5120363;27;20039;-46
2023/12/27 08:24:57;;;;;;;0.73;0.73;;;22.20;58.40;;;;;;5116744;28;20034;-45
2023/12/27 08:27:23;;;;;;;0.70;0.70;;;22.20;58.30;;;;;;5113959;28;20034;-45
2023/12/27 08:29:49;;;;;;;1.05;0.60;;;22.10;58.30;;;;;;5116767;28;20031;-45
2023/12/27 08:32:15;;;;;;;0.80;0.70;;;22.20;58.30;;;;;;5113155;28;20047;-46
2023/12/27 08:34:42;;;;;;;1.08;0.55;;;22.20;58.60;;;;;;5114815;27;20053;-45
2023/12/27 08:37:08;;;;;;;0.82;0.70;;;22.20;58.20;;;;;;5098292;28;20838;-47
2023/12/27 08:39:34;;;;;;;0.70;0.70;;;22.20;58.30;;;;;;5116254;27;20024;-46
2023/12/27 08:42:01;;;;;;;0.90;0.70;;;22.20;58.30;;;;;;5116245;28;20031;-44
2023/12/27 08:44:27;;;;;;;1.33;0.70;;;22.10;58.30;;;;;;5117524;28;20027;-48
2023/12/27 08:46:53;;;;;;;0.70;0.70;;;22.10;58.40;;;;;;5116453;28;20441;-46
2023/12/27 08:49:19;;;;;;;0.68;0.52;;;22.10;58.40;;;;;;5116839;28;20104;-45
2023/12/27 08:51:45;;;;;;;0.50;0.50;;;22.10;58.30;;;;;;5115600;28;20034;-46
2023/12/27 08:54:11;;;;;;;0.75;0.60;;;22.10;58.10;;;;;;5117443;28;20027;-51
2023/12/27 08:56:37;;;;;;;0.60;0.40;;;22.20;58.50;;;;;;5116033;28;20023;-47
2023/12/27 08:59:04;;;;;;;0.80;0.75;;;22.20;58.20;;;;;;5119324;28;20032;-46
2023/12/27 09:01:31;;;;;;;0.65;0.50;;;22.20;58.10;;;;;;5115329;28;20043;-47
2023/12/27 09:03:57;;;;;;;0.57;0.57;;;22.20;58.30;;;;;;5101525;28;20034;-47
2023/12/27 09:06:24;;;;;;;4.00;0.68;;;22.10;58.20;;;;;;5117457;28;20083;-45
2023/12/27 09:08:50;;;;;;;0.50;0.50;;;22.10;58.30;;;;;;5119475;28;20073;-46
2023/12/27 09:11:18;;;;;;;0.40;0.40;;;22.10;58.30;;;;;;5116068;28;20044;-45
2023/12/27 09:13:45;;;;;;;0.40;0.40;;;22.10;58.20;;;;;;5121314;28;20034;-46
2023/12/27 09:16:11;;;;;;;0.90;0.45;;;22.10;58.20;;;;;;5117027;28;20031;-46
2023/12/27 09:18:37;;;;;;;1.55;0.60;;;22.10;58.40;;;;;;5119246;27;20085;-52
2023/12/27 09:21:09;;;;;;;1.38;0.63;;;22.20;58.20;;;;;;5118028;28;20831;-49
2023/12/27 09:23:36;;;;;;;0.82;0.50;;;22.10;58.10;;;;;;5115787;28;20120;-47
2023/12/27 09:26:02;;;;;;;2.43;0.60;;;22.10;58.10;;;;;;5117074;28;20483;-46
2023/12/27 09:28:29;;;;;;;6.72;0.77;;;22.10;58.30;;;;;;5120206;28;20567;-49
2023/12/27 09:30:58;;;;;;;8.25;0.77;;;22.10;58.30;;;;;;5116269;28;20044;-48
2023/12/27 09:33:24;;;;;;;0.85;0.60;;;22.10;58.30;;;;;;5117754;28;20024;-46
2023/12/27 09:35:50;;;;;;;1.23;0.47;;;22.10;58.30;;;;;;5117564;28;20032;-46
2023/12/27 09:38:17;;;;;;;0.60;0.43;;;22.10;58.10;;;;;;5117335;28;20114;-46
2023/12/27 09:40:43;;;;;;;0.53;0.33;;;22.10;58.60;;;;;;5119362;28;20027;-47
2023/12/27 09:43:09;;;;;;;0.60;0.40;;;22.10;58.10;;;;;;5117011;28;20291;-46
2023/12/27 09:45:36;;;;;;;1.98;0.40;;;22.10;58.10;;;;;;5118055;28;20081;-48
2023/12/27 09:48:02;;;;;;;1.17;0.47;;;22.10;58.20;;;;;;5098621;28;20028;-46
2023/12/27 09:50:29;;;;;;;0.77;0.40;;;22.10;58.20;;;;;;5098713;28;20061;-47
2023/12/27 09:52:55;;;;;;;0.60;0.50;;;22.10;58.20;;;;;;5082869;28;20047;-46
2023/12/27 09:55:21;;;;;;;1.27;0.30;;;22.10;58.30;;;;;;5115250;28;20268;-47
2023/12/27 09:57:47;;;;;;;0.90;0.45;;;22.10;58.20;;;;;;5097927;28;20088;-47
2023/12/27 10:00:14;;;;;;;0.32;0.30;;;22.10;58.10;;;;;;5099449;28;20047;-46
2023/12/27 10:02:44;;;;;;;0.70;0.37;;;22.10;58.60;;;;;;5079492;28;20075;-48
2023/12/27 10:05:23;;;;;;;1.60;0.30;;;22.10;58.10;;;;;;5107240;28;20060;-46
2023/12/27 10:07:49;;;;;;;1.38;0.57;;;22.10;58.10;;;;;;5116715;28;20069;-45
2023/12/27 10:10:15;;;;;;;0.50;0.40;;;22.10;58.20;;;;;;5115849;28;20040;-46
2023/12/27 10:12:41;;;;;;;0.20;0.20;;;22.10;58.20;;;;;;5094750;28;20057;-48
2023/12/27 10:15:08;;;;;;;4.68;0.40;;;22.10;58.20;;;;;;5108432;28;20491;-46
2023/12/27 10:17:34;;;;;;;0.50;0.30;;;22.10;58.10;;;;;;5119904;28;20063;-46
2023/12/27 10:20:00;;;;;;;1.48;0.28;;;22.10;58.40;;;;;;5111121;28;20036;-48
2023/12/27 10:22:29;;;;;;;0.25;0.25;;;22.10;58.40;;;;;;5113664;27;20039;-48
2023/12/27 10:24:56;;;;;;;0.55;0.20;;;22.10;58.10;;;;;;5113538;28;20038;-48
2023/12/27 10:27:22;;;;;;;1.85;0.30;;;22.10;58.10;;;;;;5118360;27;20114;-47
2023/12/27 10:29:48;;;;;;;0.40;0.20;;;22.10;58.10;;;;;;5110499;28;20032;-46
2023/12/27 10:32:18;;;;;;;0.82;0.32;;;22.10;58.20;;;;;;5117692;27;20116;-47
2023/12/27 10:34:47;;;;;;;0.98;0.40;;;22.10;58.20;;;;;;5118287;27;20083;-45
2023/12/27 10:37:14;;;;;;;0.40;0.40;;;22.00;58.10;;;;;;5101771;28;20020;-45
2023/12/27 10:39:47;;;;;;;1.13;0.30;;;22.10;58.10;;;;;;5093826;28;20075;-46
2023/12/27 10:42:16;;;;;;;0.35;0.30;;;22.10;58.50;;;;;;5116266;27;20027;-47
2023/12/27 10:44:48;;;;;;;0.20;0.20;;;22.10;58.00;;;;;;5115817;28;20036;-40
2023/12/27 10:47:17;;;;;;;1.23;0.30;;;22.10;58.10;;;;;;5111186;28;20028;-41
2023/12/27 10:49:46;;;;;;;0.63;0.30;;;22.10;57.90;;;;;;5116101;28;20048;-41
2023/12/27 10:52:12;;;;;;;0.40;0.25;;;22.10;57.90;;;;;;5096542;28;20024;-47
2023/12/27 10:54:40;;;;;;;0.45;0.35;;;22.10;58.00;;;;;;5101207;28;20028;-48
2023/12/27 10:57:06;;;;;;;1.88;0.30;;;22.10;57.90;;;;;;5118189;27;21838;-49
2023/12/27 10:59:32;;;;;;;0.50;0.35;;;22.10;57.80;;;;;;5085211;28;20662;-46
2023/12/27 11:01:58;;;;;;;0.30;0.30;;;22.10;58.20;;;;;;5101211;27;20031;-49
2023/12/27 11:04:25;;;;;;;0.40;0.30;;;22.10;58.20;;;;;;5119277;28;20326;-45
2023/12/27 11:06:51;;;;;;;0.32;0.20;;;22.10;58.00;;;;;;5115288;28;20035;-46
2023/12/27 11:09:17;;;;;;;0.35;0.20;;;22.10;58.00;;;;;;5119817;28;20092;-46
2023/12/27 11:11:44;;;;;;;0.52;0.35;;;22.10;58.10;;;;;;5118969;27;20034;-46
2023/12/27 11:14:13;;;;;;;0.73;0.40;;;22.10;58.20;;;;;;5103023;28;20079;-47
2023/12/27 11:16:40;;;;;;;0.57;0.40;;;22.00;58.10;;;;;;5117601;27;20054;-45
2023/12/27 11:19:06;;;;;;;1.30;0.50;;;22.00;58.10;;;;;;5100688;28;20470;-48
2023/12/27 11:21:36;;;;;;;0.75;0.25;;;22.00;58.00;;;;;;5116369;28;20044;-46
2023/12/27 11:24:06;;;;;;;0.25;0.25;;;22.10;58.10;;;;;;5116411;28;20047;-45
2023/12/27 11:26:36;;;;;;;0.73;0.45;;;22.10;58.00;;;;;;5119062;28;20051;-47
2023/12/27 11:29:21;;;;;;;0.30;0.30;;;22.10;58.00;;;;;;5120154;28;20043;-47
2023/12/27 11:31:47;;;;;;;1.83;0.30;;;22.10;58.00;;;;;;5101274;28;20044;-47
2023/12/27 11:34:13;;;;;;;0.35;0.35;;;22.00;58.00;;;;;;5119193;28;20032;-46
2023/12/27 11:36:39;;;;;;;0.32;0.30;;;22.00;58.00;;;;;;5112376;27;20051;-46
2023/12/27 11:39:24;;;;;;;0.30;0.30;;;22.00;58.00;;;;;;5119024;28;20027;-46
2023/12/27 11:41:50;;;;;;;0.40;0.20;;;22.00;57.90;;;;;;5116095;28;20163;-47
2023/12/27 11:44:17;;;;;;;0.30;0.30;;;22.00;58.10;;;;;;5120178;28;20020;-44
2023/12/27 11:46:43;;;;;;;0.30;0.30;;;22.10;58.10;;;;;;5106988;28;20036;-46
2023/12/27 11:49:17;;;;;;;0.28;0.20;;;22.00;57.90;;;;;;5116979;27;20048;-49
2023/12/27 11:51:43;;;;;;;0.20;0.20;;;22.00;57.90;;;;;;5112596;28;20056;-46
2023/12/27 11:54:19;;;;;;;0.30;0.30;;;22.00;58.00;;;;;;5110962;28;20038;-49
2023/12/27 11:56:45;;;;;;;0.77;0.30;;;22.00;58.10;;;;;;5104614;28;20035;-46
2023/12/27 11:59:11;;;;;;;0.30;0.22;;;22.00;58.10;;;;;;5103907;28;20030;-47
2023/12/27 12:01:39;;;;;;;0.45;0.40;;;22.00;57.80;;;;;;5121698;27;20039;-46
2023/12/27 12:04:33;;;;;;;0.30;0.25;;;22.00;58.20;;;;;;5117827;28;20031;-46
2023/12/27 12:07:19;;;;;;;0.40;0.20;;;22.00;57.90;;;;;;5118725;28;20507;-45
2023/12/27 12:09:46;;;;;;;0.57;0.20;;;22.00;57.80;;;;;;5102466;27;20897;-45
2023/12/27 12:12:19;;;;;;;0.20;0.20;;;22.00;57.90;;;;;;5120488;28;20055;-44
2023/12/27 12:14:46;;;;;;;0.55;0.30;;;22.00;57.90;;;;;;5121237;28;20051;-45
2023/12/27 12:17:15;;;;;;;1.77;0.38;;;21.90;57.90;;;;;;5120526;28;20065;-47
2023/12/27 12:19:41;;;;;;;0.47;0.30;;;22.00;58.00;;;;;;5122511;27;20560;-49
2023/12/27 12:22:07;;;;;;;0.30;0.30;;;22.00;57.80;;;;;;5119086;28;20038;-49
2023/12/27 12:24:33;;;;;;;0.43;0.30;;;22.00;58.10;;;;;;5119450;27;20078;-49
2023/12/27 12:27:00;;;;;;;0.68;0.20;;;22.00;57.80;;;;;;5120431;28;20019;-48
2023/12/27 12:29:26;;;;;;;2.28;0.30;;;22.00;57.80;;;;;;5119906;28;20031;-46
2023/12/27 12:31:56;;;;;;;0.20;0.20;;;22.00;57.70;;;;;;5119242;28;20035;-48
2023/12/27 12:34:22;;;;;;;1.20;0.30;;;22.00;57.80;;;;;;5100909;28;20709;-46
2023/12/27 12:36:52;;;;;;;0.82;0.25;;;22.00;57.80;;;;;;5117386;28;20039;-46
2023/12/27 12:39:21;;;;;;;0.28;0.20;;;21.90;57.80;;;;;;5117330;28;20028;-45
2023/12/27 12:41:48;;;;;;;0.45;0.30;;;22.00;57.70;;;;;;5117403;28;20042;-48
2023/12/27 12:44:14;;;;;;;0.80;0.30;;;22.00;58.00;;;;;;5120001;27;20023;-45
2023/12/27 12:46:41;;;;;;;0.28;0.20;;;22.00;57.80;;;;;;5119318;28;20039;-46